Time;durP1;ratioP1;P1;durP2;ratioP2;P2;SDS_P1;SDS_P2;PMS_P1;PMS_P2;Temp;Humidity;BMP_temperature;BMP_pressure;BME280_temperature;BME280_humidity;BME280_pressure;Samples;Min_cycle;Max_cycle;Signal;HPM_P1;HPM_P2
2022/03/06 00:00:38;;;;;;;25.45;15.07;;;;;;;;;;5014115;28;20180;-48
2022/03/06 00:03:04;;;;;;;34.88;16.85;;;;;;;;;;5014400;28;20191;-48
2022/03/06 00:05:31;;;;;;;30.13;15.10;;;;;;;;;;5014826;28;20196;-48
2022/03/06 00:07:59;;;;;;;25.35;14.35;;;;;;;;;;5013827;28;20168;-48
2022/03/06 00:10:25;;;;;;;29.42;15.73;;;;;;;;;;5027912;28;20674;-48
2022/03/06 00:12:51;;;;;;;36.00;15.93;;;;;;;;;;4996069;28;20176;-48
2022/03/06 00:15:18;;;;;;;35.10;15.13;;;;;;;;;;5012826;28;20243;-48
2022/03/06 00:17:47;;;;;;;41.55;16.77;;;;;;;;;;5014071;28;20824;-47
2022/03/06 00:20:13;;;;;;;23.83;13.65;;;;;;;;;;5013431;28;20302;-48
2022/03/06 00:22:39;;;;;;;35.75;16.50;;;;;;;;;;5013703;28;20596;-49
2022/03/06 00:25:05;;;;;;;34.43;16.30;;;;;;;;;;5013756;28;20227;-48
2022/03/06 00:27:31;;;;;;;33.38;15.13;;;;;;;;;;5013843;28;20469;-48
2022/03/06 00:29:57;;;;;;;25.95;15.00;;;;;;;;;;5012921;28;20184;-48
2022/03/06 00:32:23;;;;;;;32.47;16.90;;;;;;;;;;5013680;28;20204;-50
2022/03/06 00:34:49;;;;;;;32.30;15.13;;;;;;;;;;5013233;28;20223;-48
2022/03/06 00:37:16;;;;;;;31.20;16.23;;;;;;;;;;5013132;28;20475;-48
2022/03/06 00:39:42;;;;;;;31.20;15.32;;;;;;;;;;5013182;28;20200;-48
2022/03/06 00:42:09;;;;;;;28.88;14.63;;;;;;;;;;5013586;28;20196;-48
2022/03/06 00:44:35;;;;;;;29.23;16.95;;;;;;;;;;5013444;28;20698;-48
2022/03/06 00:47:01;;;;;;;33.40;16.08;;;;;;;;;;5013397;28;20165;-48
2022/03/06 00:49:27;;;;;;;27.47;14.60;;;;;;;;;;5012996;28;20644;-47
2022/03/06 00:51:53;;;;;;;31.03;14.60;;;;;;;;;;5013329;28;20426;-47
2022/03/06 00:54:19;;;;;;;25.80;13.87;;;;;;;;;;5013468;28;20392;-48
2022/03/06 00:56:46;;;;;;;36.45;18.17;;;;;;;;;;5013315;28;20482;-47
2022/03/06 00:59:12;;;;;;;34.38;19.77;;;;;;;;;;5012965;28;20164;-47
2022/03/06 01:01:38;;;;;;;42.97;23.35;;;;;;;;;;5013065;28;20223;-47
2022/03/06 01:04:04;;;;;;;42.07;21.20;;;;;;;;;;5012876;28;20220;-48
2022/03/06 01:06:30;;;;;;;34.75;19.80;;;;;;;;;;5012955;28;20973;-48
2022/03/06 01:08:56;;;;;;;35.83;18.10;;;;;;;;;;5019740;28;20168;-47
2022/03/06 01:11:22;;;;;;;38.80;17.15;;;;;;;;;;5032695;28;20443;-48
2022/03/06 01:13:48;;;;;;;31.10;16.35;;;;;;;;;;5032819;28;20156;-49
2022/03/06 01:16:14;;;;;;;36.93;16.07;;;;;;;;;;5032689;28;20168;-47
2022/03/06 01:18:40;;;;;;;32.78;17.25;;;;;;;;;;5032669;28;20413;-48
2022/03/06 01:21:06;;;;;;;35.53;17.40;;;;;;;;;;5032350;28;20191;-49
2022/03/06 01:23:33;;;;;;;33.45;16.52;;;;;;;;;;5032753;28;20662;-48
2022/03/06 01:25:59;;;;;;;38.17;17.25;;;;;;;;;;5032459;28;20241;-48
2022/03/06 01:28:24;;;;;;;39.37;16.97;;;;;;;;;;5032540;28;20241;-49
2022/03/06 01:30:50;;;;;;;32.50;16.10;;;;;;;;;;5032147;28;20465;-47
2022/03/06 01:33:16;;;;;;;37.97;19.20;;;;;;;;;;5032234;28;20414;-47
2022/03/06 01:35:42;;;;;;;32.60;17.03;;;;;;;;;;5032249;28;20438;-48
2022/03/06 01:38:08;;;;;;;31.08;16.27;;;;;;;;;;5032255;28;20406;-48
2022/03/06 01:40:34;;;;;;;38.67;16.57;;;;;;;;;;5031253;28;20188;-47
2022/03/06 01:43:00;;;;;;;28.47;15.87;;;;;;;;;;5032160;28;20413;-48
2022/03/06 01:45:26;;;;;;;29.98;15.40;;;;;;;;;;5031919;28;20820;-48
2022/03/06 01:47:53;;;;;;;32.57;16.30;;;;;;;;;;5032012;28;20166;-48
2022/03/06 01:50:19;;;;;;;34.30;16.55;;;;;;;;;;5031595;28;20420;-47
2022/03/06 01:52:46;;;;;;;36.50;15.63;;;;;;;;;;5031988;28;20168;-47
2022/03/06 01:55:13;;;;;;;30.23;16.85;;;;;;;;;;5031705;28;20636;-48
2022/03/06 01:57:42;;;;;;;31.42;16.02;;;;;;;;;;5031865;28;20175;-47
2022/03/06 02:00:10;;;;;;;29.05;16.00;;;;;;;;;;5031468;28;20222;-47
2022/03/06 02:02:36;;;;;;;37.50;19.30;;;;;;;;;;5031237;28;20245;-48
2022/03/06 02:05:02;;;;;;;31.05;16.00;;;;;;;;;;5031607;28;20206;-48
2022/03/06 02:07:28;;;;;;;35.75;17.35;;;;;;;;;;5031365;28;20198;-48
2022/03/06 02:09:54;;;;;;;33.67;16.00;;;;;;;;;;5030380;28;20616;-48
2022/03/06 02:12:24;;;;;;;28.45;16.48;;;;;;;;;;5031276;28;20402;-48
2022/03/06 02:14:53;;;;;;;35.38;16.88;;;;;;;;;;5031564;28;20178;-48
2022/03/06 02:17:19;;;;;;;34.78;16.05;;;;;;;;;;5031669;28;20534;-48
2022/03/06 02:19:51;;;;;;;35.63;17.15;;;;;;;;;;5031209;28;20190;-48
2022/03/06 02:22:17;;;;;;;32.20;15.73;;;;;;;;;;5031186;28;20191;-48
2022/03/06 02:24:43;;;;;;;34.70;18.55;;;;;;;;;;5031366;28;20842;-47
2022/03/06 02:27:09;;;;;;;34.00;15.87;;;;;;;;;;5031454;28;20171;-47
2022/03/06 02:29:39;;;;;;;32.50;16.90;;;;;;;;;;5031061;28;20426;-48
2022/03/06 02:32:05;;;;;;;32.40;17.20;;;;;;;;;;5031207;28;20873;-48
2022/03/06 02:34:31;;;;;;;32.88;17.00;;;;;;;;;;5031282;28;20176;-48
2022/03/06 02:37:00;;;;;;;34.38;17.73;;;;;;;;;;5031042;28;20171;-48
2022/03/06 02:39:26;;;;;;;31.20;17.45;;;;;;;;;;5030829;28;20172;-48
2022/03/06 02:41:52;;;;;;;33.13;17.55;;;;;;;;;;5030994;28;20203;-47
2022/03/06 02:44:18;;;;;;;33.50;18.57;;;;;;;;;;5031234;28;20277;-48
2022/03/06 02:46:47;;;;;;;31.53;15.50;;;;;;;;;;5030997;28;20414;-48
2022/03/06 02:49:13;;;;;;;30.52;15.60;;;;;;;;;;5030953;28;20410;-48
2022/03/06 02:51:44;;;;;;;33.53;15.98;;;;;;;;;;5030757;28;20203;-47
2022/03/06 02:54:10;;;;;;;36.28;16.83;;;;;;;;;;5030932;28;20652;-48
2022/03/06 02:56:37;;;;;;;35.08;17.17;;;;;;;;;;5031026;28;20182;-48
2022/03/06 02:59:03;;;;;;;31.60;17.15;;;;;;;;;;5031332;28;20222;-48
2022/03/06 03:01:29;;;;;;;31.20;17.00;;;;;;;;;;5031002;28;20230;-48
2022/03/06 03:03:55;;;;;;;40.67;15.88;;;;;;;;;;5030818;28;20192;-48
2022/03/06 03:06:21;;;;;;;34.90;15.98;;;;;;;;;;5030941;28;20203;-48
2022/03/06 03:08:48;;;;;;;34.40;17.13;;;;;;;;;;5030982;28;20631;-47
2022/03/06 03:11:14;;;;;;;34.80;17.48;;;;;;;;;;5030626;28;20418;-47
2022/03/06 03:13:40;;;;;;;30.98;15.88;;;;;;;;;;5030499;28;20213;-47
2022/03/06 03:16:07;;;;;;;34.17;16.70;;;;;;;;;;5030754;28;20601;-48
2022/03/06 03:18:32;;;;;;;29.10;15.20;;;;;;;;;;5030895;28;20218;-48
2022/03/06 03:20:59;;;;;;;33.30;16.30;;;;;;;;;;5030461;28;20238;-48
2022/03/06 03:23:25;;;;;;;29.58;15.00;;;;;;;;;;5030525;28;20414;-48
2022/03/06 03:25:51;;;;;;;28.27;16.50;;;;;;;;;;5030614;28;20191;-47
2022/03/06 03:28:17;;;;;;;37.83;16.03;;;;;;;;;;5030556;28;20263;-48
2022/03/06 03:30:43;;;;;;;30.07;15.97;;;;;;;;;;5030551;28;20437;-47
2022/03/06 03:33:09;;;;;;;31.80;15.80;;;;;;;;;;5030554;28;20923;-48
2022/03/06 03:35:36;;;;;;;25.60;14.90;;;;;;;;;;5030784;28;20933;-47
2022/03/06 03:38:02;;;;;;;28.67;15.38;;;;;;;;;;5030523;28;20485;-47
2022/03/06 03:40:27;;;;;;;37.70;16.87;;;;;;;;;;5029664;28;20283;-47
2022/03/06 03:42:53;;;;;;;35.83;15.23;;;;;;;;;;5030132;28;20685;-47
2022/03/06 03:45:19;;;;;;;39.33;15.87;;;;;;;;;;5030568;28;20466;-47
2022/03/06 03:47:45;;;;;;;42.70;16.43;;;;;;;;;;5030731;28;20482;-48
2022/03/06 03:50:12;;;;;;;42.63;15.30;;;;;;;;;;5030434;28;20421;-47
2022/03/06 03:52:38;;;;;;;31.75;14.43;;;;;;;;;;5030333;28;20418;-48
2022/03/06 03:55:04;;;;;;;33.25;15.70;;;;;;;;;;5030319;28;20682;-48
2022/03/06 03:57:30;;;;;;;31.33;15.63;;;;;;;;;;5030824;28;20178;-48
2022/03/06 03:59:56;;;;;;;39.97;17.57;;;;;;;;;;5030087;28;20192;-47
2022/03/06 04:02:22;;;;;;;40.07;16.40;;;;;;;;;;5030315;28;20418;-47
2022/03/06 04:04:49;;;;;;;28.63;16.08;;;;;;;;;;5031718;28;20486;-47
2022/03/06 04:07:15;;;;;;;33.70;17.65;;;;;;;;;;5033887;28;20693;-48
2022/03/06 04:09:41;;;;;;;32.07;16.43;;;;;;;;;;5033427;28;20479;-49
2022/03/06 04:12:07;;;;;;;31.33;16.67;;;;;;;;;;5033759;28;20506;-47
2022/03/06 04:14:33;;;;;;;31.35;17.73;;;;;;;;;;5033720;28;20777;-47
2022/03/06 04:16:59;;;;;;;29.27;16.33;;;;;;;;;;5033964;28;20221;-47
2022/03/06 04:19:25;;;;;;;32.90;16.90;;;;;;;;;;5033391;28;20959;-48
2022/03/06 04:21:51;;;;;;;76.87;35.53;;;;;;;;;;5033579;28;20414;-47
2022/03/06 04:24:17;;;;;;;34.80;15.70;;;;;;;;;;5033504;28;20398;-48
2022/03/06 04:26:43;;;;;;;34.70;16.77;;;;;;;;;;5033524;28;20584;-48
2022/03/06 04:29:09;;;;;;;34.30;15.33;;;;;;;;;;5033550;28;20453;-47
2022/03/06 04:31:35;;;;;;;32.03;15.80;;;;;;;;;;5033496;28;20764;-48
2022/03/06 04:34:01;;;;;;;30.58;15.90;;;;;;;;;;5033487;28;20179;-47
2022/03/06 04:36:27;;;;;;;33.65;17.90;;;;;;;;;;5033350;28;20171;-47
2022/03/06 04:38:53;;;;;;;28.30;15.83;;;;;;;;;;5033837;28;20170;-47
2022/03/06 04:41:19;;;;;;;32.05;16.08;;;;;;;;;;5032999;28;20430;-47
2022/03/06 04:43:45;;;;;;;33.30;16.20;;;;;;;;;;5033547;28;20681;-48
2022/03/06 04:46:11;;;;;;;31.15;16.67;;;;;;;;;;5033232;28;20485;-48
2022/03/06 04:48:37;;;;;;;31.55;16.77;;;;;;;;;;5033412;28;20156;-48
2022/03/06 04:51:04;;;;;;;29.80;16.37;;;;;;;;;;5033105;28;20326;-48
2022/03/06 04:53:30;;;;;;;30.15;16.27;;;;;;;;;;5033243;28;20395;-47
2022/03/06 04:55:56;;;;;;;35.60;16.90;;;;;;;;;;5033201;28;20176;-47
2022/03/06 04:58:22;;;;;;;28.90;16.70;;;;;;;;;;5033196;28;20229;-48
2022/03/06 05:00:48;;;;;;;26.83;14.02;;;;;;;;;;5032738;28;20422;-48
2022/03/06 05:03:14;;;;;;;29.70;14.90;;;;;;;;;;5032817;28;20210;-48
2022/03/06 05:05:40;;;;;;;27.83;14.52;;;;;;;;;;5032796;28;20195;-49
2022/03/06 05:08:06;;;;;;;27.33;15.80;;;;;;;;;;5032803;28;20627;-47
2022/03/06 05:10:32;;;;;;;26.30;13.80;;;;;;;;;;5032569;28;20467;-47
2022/03/06 05:12:58;;;;;;;28.23;15.07;;;;;;;;;;5032425;28;20449;-47
2022/03/06 05:15:24;;;;;;;28.53;15.30;;;;;;;;;;5032513;28;20398;-48
2022/03/06 05:17:51;;;;;;;27.90;14.70;;;;;;;;;;5032508;28;20743;-48
2022/03/06 05:20:17;;;;;;;30.65;15.93;;;;;;;;;;5032384;28;20433;-47
2022/03/06 05:22:43;;;;;;;24.40;14.82;;;;;;;;;;5032368;28;20167;-47
2022/03/06 05:25:10;;;;;;;25.35;14.25;;;;;;;;;;5032471;28;20273;-47
2022/03/06 05:27:37;;;;;;;28.52;14.85;;;;;;;;;;5032392;28;20175;-48
2022/03/06 05:30:04;;;;;;;54.53;28.27;;;;;;;;;;5032196;28;20188;-47
2022/03/06 05:32:30;;;;;;;28.98;15.70;;;;;;;;;;5032126;28;20194;-48
2022/03/06 05:34:56;;;;;;;22.80;14.27;;;;;;;;;;5032353;28;20176;-47
2022/03/06 05:37:22;;;;;;;25.20;15.10;;;;;;;;;;5032080;28;20460;-47
2022/03/06 05:39:48;;;;;;;26.20;15.30;;;;;;;;;;5031978;28;20433;-47
2022/03/06 05:42:14;;;;;;;26.27;15.37;;;;;;;;;;5032095;28;20769;-47
2022/03/06 05:44:41;;;;;;;21.30;14.03;;;;;;;;;;5032167;28;20457;-48
2022/03/06 05:47:07;;;;;;;22.73;14.45;;;;;;;;;;5032019;28;20438;-47
2022/03/06 05:49:33;;;;;;;29.98;15.32;;;;;;;;;;5031870;28;20548;-47
2022/03/06 05:51:59;;;;;;;26.43;15.90;;;;;;;;;;5032031;28;20179;-47
2022/03/06 05:54:25;;;;;;;30.03;15.80;;;;;;;;;;5032154;28;20898;-47
2022/03/06 05:56:51;;;;;;;33.10;16.10;;;;;;;;;;5031945;28;20894;-48
2022/03/06 05:59:17;;;;;;;32.35;15.60;;;;;;;;;;5031553;28;20407;-48
2022/03/06 06:01:44;;;;;;;29.67;16.53;;;;;;;;;;5031706;28;20666;-47
2022/03/06 06:04:12;;;;;;;35.97;16.13;;;;;;;;;;5031570;28;20430;-47
2022/03/06 06:06:38;;;;;;;30.05;16.15;;;;;;;;;;5031710;28;20706;-47
2022/03/06 06:09:04;;;;;;;33.08;15.55;;;;;;;;;;5031825;28;20168;-47
2022/03/06 06:11:30;;;;;;;31.67;16.88;;;;;;;;;;5031135;28;20206;-47
2022/03/06 06:13:57;;;;;;;25.88;15.85;;;;;;;;;;5032027;28;20175;-48
2022/03/06 06:16:23;;;;;;;32.25;16.40;;;;;;;;;;5031727;28;20634;-48
2022/03/06 06:18:48;;;;;;;31.63;15.97;;;;;;;;;;5031608;28;20266;-48
2022/03/06 06:21:16;;;;;;;35.57;17.00;;;;;;;;;;5031818;28;20424;-50
2022/03/06 06:23:42;;;;;;;28.40;15.15;;;;;;;;;;5031303;28;20433;-47
2022/03/06 06:26:09;;;;;;;27.52;15.25;;;;;;;;;;5031358;28;20195;-46
2022/03/06 06:28:35;;;;;;;29.33;16.20;;;;;;;;;;5031033;28;20198;-46
2022/03/06 06:31:01;;;;;;;26.15;15.68;;;;;;;;;;5031246;28;20607;-46
2022/03/06 06:33:28;;;;;;;24.95;14.65;;;;;;;;;;5031420;28;20234;-46
2022/03/06 06:35:54;;;;;;;28.30;14.15;;;;;;;;;;5031601;28;20693;-51
2022/03/06 06:38:21;;;;;;;30.02;16.10;;;;;;;;;;5031371;28;20182;-48
2022/03/06 06:40:47;;;;;;;26.05;15.88;;;;;;;;;;5031025;28;20253;-47
2022/03/06 06:43:13;;;;;;;25.45;14.90;;;;;;;;;;5031709;28;20171;-46
2022/03/06 06:45:39;;;;;;;25.53;14.60;;;;;;;;;;5031662;28;20199;-47
2022/03/06 06:48:06;;;;;;;26.63;15.10;;;;;;;;;;5031968;28;20452;-50
2022/03/06 06:50:32;;;;;;;23.48;13.90;;;;;;;;;;5031846;28;20434;-47
2022/03/06 06:52:58;;;;;;;27.83;15.45;;;;;;;;;;5031678;28;20168;-46
2022/03/06 06:55:24;;;;;;;28.00;15.07;;;;;;;;;;5031644;28;20186;-50
2022/03/06 06:57:50;;;;;;;25.57;15.30;;;;;;;;;;5031817;28;20417;-46
2022/03/06 07:00:16;;;;;;;34.00;15.97;;;;;;;;;;5031469;28;20476;-46
2022/03/06 07:02:42;;;;;;;29.67;15.68;;;;;;;;;;5031691;28;20480;-46
2022/03/06 07:05:09;;;;;;;26.42;14.20;;;;;;;;;;5031419;28;20222;-46
2022/03/06 07:07:35;;;;;;;25.00;14.13;;;;;;;;;;5031574;28;20543;-48
2022/03/06 07:10:01;;;;;;;24.30;13.48;;;;;;;;;;5031083;28;20191;-46
2022/03/06 07:12:27;;;;;;;25.95;14.98;;;;;;;;;;5031875;28;20190;-47
2022/03/06 07:14:53;;;;;;;22.13;13.13;;;;;;;;;;5031686;28;20643;-46
2022/03/06 07:17:19;;;;;;;24.70;14.43;;;;;;;;;;5031850;28;20403;-46
2022/03/06 07:19:45;;;;;;;23.70;14.60;;;;;;;;;;5031037;28;20415;-46
2022/03/06 07:22:11;;;;;;;27.30;15.90;;;;;;;;;;5031232;28;20761;-46
2022/03/06 07:24:37;;;;;;;21.98;14.63;;;;;;;;;;5031087;28;20421;-47
2022/03/06 07:27:03;;;;;;;25.10;15.00;;;;;;;;;;5031689;28;20168;-49
2022/03/06 07:29:29;;;;;;;25.20;15.30;;;;;;;;;;5030683;28;20464;-46
2022/03/06 07:31:55;;;;;;;25.60;15.63;;;;;;;;;;5031077;28;20411;-46
2022/03/06 07:34:20;;;;;;;25.80;16.50;;;;;;;;;;5031414;28;20406;-46
2022/03/06 07:36:47;;;;;;;21.27;14.50;;;;;;;;;;5031460;28;20946;-46
2022/03/06 07:39:13;;;;;;;22.87;13.93;;;;;;;;;;5031633;28;20408;-46
2022/03/06 07:41:38;;;;;;;22.83;14.80;;;;;;;;;;5034636;28;20427;-47
2022/03/06 07:44:04;;;;;;;22.23;15.30;;;;;;;;;;5034974;28;20491;-47
2022/03/06 07:46:30;;;;;;;23.97;14.03;;;;;;;;;;5035007;28;20454;-49
2022/03/06 07:48:56;;;;;;;21.20;14.70;;;;;;;;;;5035164;28;20405;-53
2022/03/06 07:51:22;;;;;;;23.80;14.90;;;;;;;;;;5034827;28;20484;-46
2022/03/06 07:53:48;;;;;;;21.33;15.43;;;;;;;;;;5034770;28;20398;-48
2022/03/06 07:56:14;;;;;;;26.63;14.50;;;;;;;;;;5035297;28;20402;-46
2022/03/06 07:58:40;;;;;;;21.80;13.87;;;;;;;;;;5034946;28;20418;-46
2022/03/06 08:01:06;;;;;;;20.97;14.13;;;;;;;;;;5034057;28;20418;-47
2022/03/06 08:03:32;;;;;;;29.20;16.30;;;;;;;;;;5034255;28;20933;-48
2022/03/06 08:05:58;;;;;;;22.50;14.00;;;;;;;;;;5034073;28;20851;-52
2022/03/06 08:08:25;;;;;;;22.87;14.83;;;;;;;;;;5034247;28;20532;-47
2022/03/06 08:10:51;;;;;;;22.80;14.10;;;;;;;;;;5033715;28;20424;-46
2022/03/06 08:13:17;;;;;;;25.60;16.13;;;;;;;;;;5035025;28;20545;-47
2022/03/06 08:15:43;;;;;;;22.65;15.60;;;;;;;;;;5034143;28;21022;-48
2022/03/06 08:18:09;;;;;;;22.43;14.73;;;;;;;;;;5014229;28;20187;-49
2022/03/06 08:20:35;;;;;;;24.70;14.50;;;;;;;;;;5014551;28;20458;-46
2022/03/06 08:23:01;;;;;;;23.75;15.00;;;;;;;;;;5014210;28;20406;-46
2022/03/06 08:25:27;;;;;;;27.50;15.70;;;;;;;;;;5013931;28;20274;-49
2022/03/06 08:27:53;;;;;;;23.85;15.07;;;;;;;;;;5014101;28;20172;-46
2022/03/06 08:30:19;;;;;;;29.10;15.03;;;;;;;;;;5013024;28;20192;-48
2022/03/06 08:32:45;;;;;;;27.45;17.00;;;;;;;;;;5013705;28;20417;-46
2022/03/06 08:35:11;;;;;;;22.65;15.48;;;;;;;;;;5014532;28;20196;-47
2022/03/06 08:37:37;;;;;;;29.85;14.73;;;;;;;;;;5014161;28;20164;-47
2022/03/06 08:40:04;;;;;;;22.90;14.37;;;;;;;;;;5014166;28;20192;-48
2022/03/06 08:42:30;;;;;;;20.05;13.80;;;;;;;;;;5014201;28;20498;-46
2022/03/06 08:44:58;;;;;;;21.27;13.40;;;;;;;;;;5014421;28;20299;-46
2022/03/06 08:47:24;;;;;;;21.08;14.20;;;;;;;;;;5014158;28;20413;-46
2022/03/06 08:49:49;;;;;;;23.33;13.63;;;;;;;;;;5012991;28;20196;-46
2022/03/06 08:52:15;;;;;;;19.60;13.80;;;;;;;;;;5014233;28;20165;-46
2022/03/06 08:54:41;;;;;;;21.50;14.03;;;;;;;;;;5013534;28;20452;-46
2022/03/06 08:57:07;;;;;;;20.13;13.43;;;;;;;;;;5013439;28;20458;-46
2022/03/06 08:59:33;;;;;;;22.63;13.03;;;;;;;;;;5013099;28;20402;-48
2022/03/06 09:01:59;;;;;;;22.05;13.77;;;;;;;;;;5013125;28;20403;-47
2022/03/06 09:04:25;;;;;;;20.77;12.60;;;;;;;;;;4995941;28;20177;-49
2022/03/06 09:06:52;;;;;;;23.17;14.40;;;;;;;;;;5013222;28;20483;-49
2022/03/06 09:09:18;;;;;;;23.60;13.77;;;;;;;;;;5021651;28;20416;-49
2022/03/06 09:11:47;;;;;;;22.23;13.30;;;;;;;;;;5032675;28;20875;-50
2022/03/06 09:14:14;;;;;;;19.33;13.70;;;;;;;;;;5032192;28;21172;-49
2022/03/06 09:16:40;;;;;;;21.10;13.13;;;;;;;;;;5033610;28;20406;-50
2022/03/06 09:19:06;;;;;;;22.30;14.20;;;;;;;;;;5033262;28;20409;-50
2022/03/06 09:21:31;;;;;;;19.17;12.90;;;;;;;;;;5033647;28;20518;-51
2022/03/06 09:23:57;;;;;;;18.63;13.00;;;;;;;;;;5033311;28;20421;-49
2022/03/06 09:26:23;;;;;;;17.70;13.57;;;;;;;;;;5033481;28;20453;-50
2022/03/06 09:28:49;;;;;;;18.53;12.90;;;;;;;;;;5033326;28;20912;-50
2022/03/06 09:31:17;;;;;;;18.80;13.13;;;;;;;;;;5032746;28;20665;-50
2022/03/06 09:33:44;;;;;;;17.63;13.77;;;;;;;;;;5033633;28;20488;-51
2022/03/06 09:36:10;;;;;;;18.53;13.50;;;;;;;;;;5032737;28;20408;-49
2022/03/06 09:38:36;;;;;;;16.90;13.43;;;;;;;;;;5033071;28;20429;-50
2022/03/06 09:41:03;;;;;;;18.97;13.50;;;;;;;;;;5032586;28;20479;-51
2022/03/06 09:43:29;;;;;;;23.50;13.13;;;;;;;;;;5032812;28;20407;-50
2022/03/06 09:46:02;;;;;;;18.27;12.80;;;;;;;;;;5032198;28;20436;-50
2022/03/06 09:48:30;;;;;;;19.50;14.37;;;;;;;;;;5032545;28;20385;-50
2022/03/06 09:50:56;;;;;;;18.80;14.60;;;;;;;;;;5031888;28;20456;-51
2022/03/06 09:53:22;;;;;;;17.30;12.70;;;;;;;;;;5032225;28;20405;-51
2022/03/06 09:55:48;;;;;;;18.40;12.90;;;;;;;;;;5032551;28;20409;-50
2022/03/06 09:58:15;;;;;;;16.70;12.17;;;;;;;;;;5032489;28;20409;-51
2022/03/06 10:00:41;;;;;;;16.63;13.43;;;;;;;;;;5032282;28;20501;-50
2022/03/06 10:03:07;;;;;;;16.20;12.63;;;;;;;;;;5031527;28;20405;-50
2022/03/06 10:05:36;;;;;;;19.67;13.27;;;;;;;;;;5020691;28;20438;-51
2022/03/06 10:08:16;;;;;;;12.97;11.67;;;;;;;;;;5011797;28;20835;-50
2022/03/06 10:10:42;;;;;;;17.97;13.77;;;;;;;;;;4993000;28;20428;-51
2022/03/06 10:13:17;;;;;;;16.87;13.03;;;;;;;;;;4993058;28;20856;-50
2022/03/06 10:16:01;;;;;;;14.57;11.57;;;;;;;;;;4992732;28;20766;-51
2022/03/06 10:18:32;;;;;;;17.73;13.20;;;;;;;;;;4992480;28;20372;-52
2022/03/06 10:21:18;;;;;;;15.37;13.20;;;;;;;;;;4992458;28;20458;-49
2022/03/06 10:23:45;;;;;;;17.00;13.33;;;;;;;;;;4992503;28;20880;-51
2022/03/06 10:26:16;;;;;;;16.37;12.80;;;;;;;;;;4992697;28;20932;-50
2022/03/06 10:28:43;;;;;;;17.43;13.07;;;;;;;;;;4992728;28;20777;-50
2022/03/06 10:31:10;;;;;;;16.90;12.90;;;;;;;;;;5003464;28;20482;-50
2022/03/06 10:33:36;;;;;;;14.27;12.73;;;;;;;;;;5011613;28;20417;-51
2022/03/06 10:36:02;;;;;;;15.47;12.20;;;;;;;;;;5012444;28;20465;-51
2022/03/06 10:38:32;;;;;;;15.67;12.90;;;;;;;;;;5012067;28;20407;-51
2022/03/06 10:40:59;;;;;;;18.00;13.00;;;;;;;;;;5011833;28;20408;-51
2022/03/06 10:43:26;;;;;;;18.40;13.53;;;;;;;;;;5011531;28;20413;-50
2022/03/06 10:46:05;;;;;;;13.80;11.53;;;;;;;;;;5020125;28;20894;-51
2022/03/06 10:48:31;;;;;;;16.27;12.27;;;;;;;;;;5029034;28;20443;-50
2022/03/06 10:51:01;;;;;;;14.70;12.53;;;;;;;;;;5011055;28;20982;-50
2022/03/06 10:53:30;;;;;;;15.80;12.40;;;;;;;;;;5013356;28;20414;-51
2022/03/06 10:56:06;;;;;;;17.03;11.73;;;;;;;;;;5000575;28;20901;-51
2022/03/06 10:58:33;;;;;;;14.13;11.70;;;;;;;;;;5011416;28;20448;-50
2022/03/06 11:00:59;;;;;;;14.10;11.80;;;;;;;;;;5010979;28;20773;-51
2022/03/06 11:03:27;;;;;;;13.00;11.67;;;;;;;;;;5024878;28;20435;-51
2022/03/06 11:05:54;;;;;;;14.10;12.07;;;;;;;;;;5030680;28;20455;-50
2022/03/06 11:08:21;;;;;;;12.47;11.17;;;;;;;;;;5016331;28;20395;-51
2022/03/06 11:10:47;;;;;;;14.70;10.73;;;;;;;;;;5011350;28;20393;-52
2022/03/06 11:13:14;;;;;;;12.93;11.03;;;;;;;;;;5012289;28;20397;-51
2022/03/06 11:15:41;;;;;;;14.47;11.67;;;;;;;;;;5015657;28;20400;-51
2022/03/06 11:18:07;;;;;;;12.27;11.07;;;;;;;;;;5015315;28;20896;-51
2022/03/06 11:20:34;;;;;;;13.23;11.50;;;;;;;;;;5029082;28;20444;-51
2022/03/06 11:23:13;;;;;;;12.63;11.10;;;;;;;;;;5034795;28;20476;-51
2022/03/06 11:25:45;;;;;;;11.90;10.70;;;;;;;;;;5034805;28;20449;-50
2022/03/06 11:28:13;;;;;;;12.90;9.90;;;;;;;;;;5034922;28;20445;-50
2022/03/06 11:30:39;;;;;;;13.30;11.90;;;;;;;;;;5034519;28;20424;-50
2022/03/06 11:33:07;;;;;;;15.00;11.30;;;;;;;;;;5034364;28;20379;-50
2022/03/06 11:35:34;;;;;;;15.20;11.53;;;;;;;;;;5034730;28;20408;-51
2022/03/06 11:38:01;;;;;;;15.07;11.37;;;;;;;;;;5034758;28;20861;-50
2022/03/06 11:40:33;;;;;;;10.93;9.80;;;;;;;;;;5034513;28;20406;-52
2022/03/06 11:42:59;;;;;;;12.53;10.73;;;;;;;;;;5034516;28;20424;-51
2022/03/06 11:45:43;;;;;;;11.77;10.57;;;;;;;;;;5015220;28;20437;-51
2022/03/06 11:48:10;;;;;;;12.20;10.10;;;;;;;;;;5014976;28;20457;-50
2022/03/06 11:50:37;;;;;;;13.17;9.97;;;;;;;;;;5014807;28;20522;-51
2022/03/06 11:53:19;;;;;;;14.53;11.80;;;;;;;;;;5015441;28;20898;-51
2022/03/06 11:55:45;;;;;;;12.10;10.27;;;;;;;;;;5034397;28;20407;-49
2022/03/06 11:58:11;;;;;;;11.63;10.53;;;;;;;;;;5034755;28;20410;-51
2022/03/06 12:00:38;;;;;;;11.80;10.60;;;;;;;;;;5034064;28;20441;-51
2022/03/06 12:03:04;;;;;;;11.27;10.07;;;;;;;;;;5034339;28;20439;-51
2022/03/06 12:05:44;;;;;;;11.50;10.30;;;;;;;;;;5034444;28;20542;-51
2022/03/06 12:08:11;;;;;;;14.07;11.83;;;;;;;;;;5034325;28;20405;-51
2022/03/06 12:10:37;;;;;;;13.80;11.70;;;;;;;;;;5033727;28;20958;-50
2022/03/06 12:13:03;;;;;;;11.47;10.37;;;;;;;;;;5034032;28;20410;-51
2022/03/06 12:15:29;;;;;;;18.83;12.13;;;;;;;;;;5033995;28;20384;-51
2022/03/06 12:18:05;;;;;;;15.77;11.07;;;;;;;;;;5016119;28;20392;-51
2022/03/06 12:20:42;;;;;;;13.70;12.20;;;;;;;;;;5033727;28;20938;-50
2022/03/06 12:23:20;;;;;;;14.57;12.33;;;;;;;;;;5033657;28;20386;-49
2022/03/06 12:25:50;;;;;;;16.53;13.17;;;;;;;;;;5032978;28;20542;-50
2022/03/06 12:28:17;;;;;;;15.20;12.80;;;;;;;;;;5033891;28;20406;-51
2022/03/06 12:30:43;;;;;;;15.03;11.80;;;;;;;;;;5033386;28;20419;-51
2022/03/06 12:33:45;;;;;;;12.80;11.47;;;;;;;;;;5025037;28;20411;-50
2022/03/06 12:36:13;;;;;;;12.80;11.27;;;;;;;;;;4914755;29;20516;-49
2022/03/06 12:38:39;;;;;;;15.43;12.60;;;;;;;;;;4994750;28;20469;-50
2022/03/06 12:41:05;;;;;;;16.23;12.57;;;;;;;;;;5013301;28;20427;-51
2022/03/06 12:43:32;;;;;;;15.00;11.90;;;;;;;;;;5013513;28;21208;-51
2022/03/06 12:45:58;;;;;;;16.53;12.93;;;;;;;;;;5013309;28;20459;-50
2022/03/06 12:48:25;;;;;;;17.00;13.93;;;;;;;;;;5013800;28;20416;-50
2022/03/06 12:50:51;;;;;;;15.70;13.23;;;;;;;;;;5013322;28;20635;-51
2022/03/06 12:53:17;;;;;;;16.07;12.67;;;;;;;;;;5016140;28;20396;-51
2022/03/06 12:55:43;;;;;;;16.13;13.50;;;;;;;;;;5033336;28;20491;-50
2022/03/06 12:58:09;;;;;;;15.57;13.90;;;;;;;;;;5033445;28;20411;-50
2022/03/06 13:00:35;;;;;;;15.13;13.53;;;;;;;;;;5032815;28;20743;-50
2022/03/06 13:03:03;;;;;;;17.30;14.40;;;;;;;;;;5032930;28;20430;-50
2022/03/06 13:05:33;;;;;;;17.43;14.30;;;;;;;;;;5032883;28;20825;-50
2022/03/06 13:07:59;;;;;;;18.90;13.90;;;;;;;;;;5032947;28;20816;-50
2022/03/06 13:10:25;;;;;;;18.30;13.20;;;;;;;;;;5032883;28;20466;-51
2022/03/06 13:12:52;;;;;;;14.47;12.33;;;;;;;;;;5032716;28;20411;-50
2022/03/06 13:15:19;;;;;;;14.97;12.03;;;;;;;;;;5016961;28;20870;-50
2022/03/06 13:17:55;;;;;;;15.40;13.07;;;;;;;;;;5012718;28;20603;-51
2022/03/06 13:20:21;;;;;;;13.80;12.40;;;;;;;;;;5007952;28;20445;-51
2022/03/06 13:22:47;;;;;;;15.80;13.13;;;;;;;;;;5012400;28;20418;-49
2022/03/06 13:25:13;;;;;;;18.67;14.87;;;;;;;;;;4979091;28;20454;-51
2022/03/06 13:27:41;;;;;;;15.33;12.33;;;;;;;;;;5012340;28;20451;-50
2022/03/06 13:30:16;;;;;;;14.10;11.83;;;;;;;;;;5012647;28;20431;-50
2022/03/06 13:32:53;;;;;;;15.73;12.20;;;;;;;;;;5012113;28;20422;-50
2022/03/06 13:35:39;;;;;;;16.23;12.33;;;;;;;;;;5012272;28;20422;-51
2022/03/06 13:38:13;;;;;;;14.97;11.00;;;;;;;;;;5010788;28;20826;-50
2022/03/06 13:40:41;;;;;;;17.33;10.70;;;;;;;;;;5012049;28;20445;-50
2022/03/06 13:43:07;;;;;;;14.40;12.27;;;;;;;;;;5012430;28;20403;-48
2022/03/06 13:45:33;;;;;;;16.87;12.57;;;;;;;;;;5012180;28;20549;-48
2022/03/06 13:48:00;;;;;;;12.90;11.60;;;;;;;;;;5012591;28;20408;-48
2022/03/06 13:50:41;;;;;;;12.30;11.00;;;;;;;;;;5011082;28;20435;-48
2022/03/06 13:53:08;;;;;;;13.20;11.10;;;;;;;;;;5012521;28;20454;-48
2022/03/06 13:55:36;;;;;;;13.87;11.60;;;;;;;;;;5019445;28;20506;-49
2022/03/06 13:58:11;;;;;;;15.73;11.70;;;;;;;;;;5011630;28;20489;-49
2022/03/06 14:00:42;;;;;;;12.70;11.33;;;;;;;;;;5011830;28;20419;-49
2022/03/06 14:03:12;;;;;;;14.27;11.30;;;;;;;;;;5011224;28;20441;-48
2022/03/06 14:05:42;;;;;;;12.90;10.60;;;;;;;;;;5011753;28;20980;-49
2022/03/06 14:08:11;;;;;;;13.97;11.23;;;;;;;;;;5011847;28;20473;-49
2022/03/06 14:10:40;;;;;;;13.10;11.40;;;;;;;;;;5011123;28;20985;-51
2022/03/06 14:13:19;;;;;;;13.63;11.17;;;;;;;;;;5010511;28;20411;-48
2022/03/06 14:15:45;;;;;;;15.90;11.10;;;;;;;;;;5011508;28;20431;-50